Memphis International Airport
KMEM : now visible

Airfield :











YOU CAN JOIN US ON...

 
LOGIN :

Register | Disclaimer

   EN    FR    IT 

 









Legend :    VFR   Marginal VFR   IFR   Intensive IFR   Very Intensive IFR
Visi :
Ceiling :
>= 8 km
>= 3000ft
5 to 8 km
1000 to 3000 ft
1500m to 5 km
500 to 1000 ft
800 to 1500m
200 to 500 ft
< 800m
< 200 ft
Symbols :   Thunderstorms  Fog  Heavy snow  Heavy precipitations  Wind > 20 kt






- Airport Elevation : 341 ft
- IATA code : MEM


KMEM - Memphis International

CURRENT METAR :
  • 200754Z 36015G25KT 10SM OVC038 M02/M07 A3030 RMK AO2 PK WND 01026/0727 SLP261 T10171072 $

EXPIRED METARs :
  • 200710Z 36013G23KT 10SM FEW022 OVC036 M01/M07 A3029 RMK AO2 T10111067 $
  • 200654Z 01009G20KT 10SM SCT014 OVC019 M01/M06 A3028 RMK AO2 PK WND 02027/0643 SLP256 T10111061 $
  • 200639Z 01015G25KT 10SM SCT014 OVC019 M01/M06 A3029 RMK AO2 PK WND 02027/0623 T10111056 $
  • 200554Z 36014G22KT 10SM OVC014 M01/M04 A3027 RMK AO2 SLP250 60000 T10061039 10050 21006 401561006 51030 $

TAF KMEM
Valid from the 20 at 06:00 until the 21 at 12:00 UTC


200520Z 2006/2112 02015G25KT P6SM OVC015
FM201300 02015G22KT P6SM OVC030
FM201500 02016G21KT P6SM OVC250
FM210100 02014KT P6SM BKN250
FM210900 02009KT P6SM BKN250
KZME FIR / North America



MET'MAP, your aeronautical weather chart ! - Copyright ORBIFLY December 2007 - Disclaimer

ORBIFLY MET'MAP TEAM :

Programming & Development : Alexandra Zaïnal
Concept & original design : Baudouin d'Aumeries
Assistance for programming : Marc-Olivier Méhu
Technical & hardware support : Manuel Goepfert

Contact : metmap@orbifly.com




SOURCES & CREDITS :

   NOAA       Earth
Advisory